createdAt,value
2023-02-17T00:00:01.005Z,25.70
2023-02-17T00:02:42.826Z,26.15
2023-02-17T00:05:22.996Z,25.77
2023-02-17T00:07:54.947Z,26.75
2023-02-17T00:10:26.385Z,25.85
2023-02-17T00:13:06.548Z,27.25
2023-02-17T00:15:50.150Z,24.90
2023-02-17T00:18:35.059Z,26.90
2023-02-17T00:21:29.644Z,26.83
2023-02-17T00:24:12.529Z,26.35
2023-02-17T00:26:54.961Z,25.52
2023-02-17T00:29:35.728Z,25.05
2023-02-17T00:32:13.347Z,24.48
2023-02-17T00:34:57.182Z,26.17
2023-02-17T00:37:36.727Z,24.95
2023-02-17T00:40:25.030Z,24.88
2023-02-17T00:43:04.916Z,24.92
2023-02-17T00:45:50.311Z,25.27
2023-02-17T00:48:24.401Z,24.45
2023-02-17T00:54:23.817Z,26.08
2023-02-17T00:56:56.999Z,25.20
2023-02-17T00:59:57.709Z,24.15
2023-02-17T01:02:27.566Z,24.52
2023-02-17T01:04:55.232Z,24.65
2023-02-17T01:07:25.645Z,24.85
2023-02-17T01:09:56.595Z,25.75
2023-02-17T01:12:23.921Z,23.45
2023-02-17T01:14:54.392Z,25.25
2023-02-17T01:17:26.961Z,24.33
2023-02-17T01:19:58.233Z,23.80
2023-02-17T01:22:28.510Z,23.73
2023-02-17T01:24:56.715Z,24.85
2023-02-17T01:27:28.096Z,23.90
2023-02-17T01:29:58.194Z,24.92
2023-02-17T01:32:28.448Z,25.50
2023-02-17T01:34:55.806Z,25.30
2023-02-17T01:37:24.847Z,25.80
2023-02-17T01:39:54.702Z,24.75
2023-02-17T01:42:25.877Z,24.98
2023-02-17T01:45:18.044Z,26.58
2023-02-17T01:47:49.175Z,24.58
2023-02-17T01:50:17.326Z,24.50
2023-02-17T01:52:45.324Z,23.60
2023-02-17T01:55:16.560Z,25.35
2023-02-17T01:57:46.356Z,26.30
2023-02-17T02:00:20.960Z,26.00
2023-02-17T02:03:04.042Z,24.15
2023-02-17T02:05:37.642Z,25.70
2023-02-17T02:08:10.779Z,25.08
2023-02-17T02:10:44.383Z,23.45
2023-02-17T02:13:14.366Z,25.40
2023-02-17T02:15:59.475Z,25.30
2023-02-17T02:24:20.918Z,24.17
2023-02-17T02:27:25.931Z,24.30
2023-02-17T02:30:43.089Z,24.65
2023-02-17T02:33:50.211Z,25.02
2023-02-17T02:36:59.900Z,24.35
2023-02-17T02:39:36.997Z,24.92
2023-02-17T02:42:22.078Z,25.42
2023-02-17T02:44:59.770Z,23.95
2023-02-17T02:47:52.916Z,25.60
2023-02-17T02:50:43.736Z,25.33
2023-02-17T02:53:42.340Z,23.80
2023-02-17T02:56:33.569Z,22.83
2023-02-17T02:59:46.367Z,24.73
2023-02-17T03:02:46.390Z,24.38
2023-02-17T03:05:43.012Z,22.98
2023-02-17T03:11:08.199Z,22.92
2023-02-17T03:13:55.044Z,22.05
2023-02-17T03:16:25.356Z,21.58
2023-02-17T03:19:09.845Z,22.35
2023-02-17T03:21:59.437Z,21.38
2023-02-17T03:24:29.648Z,23.08
2023-02-17T03:27:09.797Z,21.95
2023-02-17T03:29:46.575Z,20.90
2023-02-17T03:32:34.731Z,22.23
2023-02-17T03:35:10.430Z,22.15
2023-02-17T03:37:45.414Z,22.17
2023-02-17T03:43:23.017Z,22.55
2023-02-17T03:45:52.758Z,21.25
2023-02-17T03:48:22.420Z,22.30
2023-02-17T03:50:55.158Z,20.98
2023-02-17T03:53:44.247Z,22.38
2023-02-17T03:56:18.021Z,18.83
2023-02-17T04:01:24.933Z,19.52
2023-02-17T04:03:52.810Z,20.60
2023-02-17T04:06:20.224Z,21.13
2023-02-17T04:08:48.598Z,20.67
2023-02-17T04:11:16.251Z,20.30
2023-02-17T04:13:44.104Z,20.77
2023-02-17T04:16:17.393Z,21.45
2023-02-17T04:18:57.185Z,21.63
2023-02-17T04:21:29.126Z,19.90
2023-02-17T04:24:05.513Z,20.88
2023-02-17T04:26:33.172Z,21.00
2023-02-17T04:29:00.745Z,20.90
2023-02-17T04:31:33.068Z,22.08
2023-02-17T04:34:00.899Z,21.13
2023-02-17T04:36:28.691Z,20.85
2023-02-17T04:39:03.969Z,21.27
2023-02-17T04:41:31.499Z,20.00
2023-02-17T04:44:06.604Z,21.80
2023-02-17T04:46:34.636Z,21.88
2023-02-17T04:49:02.164Z,20.02
2023-02-17T04:51:38.521Z,21.65
2023-02-17T04:54:09.207Z,21.05
2023-02-17T04:56:36.815Z,21.70
2023-02-17T04:59:06.570Z,21.20
2023-02-17T05:01:36.580Z,20.65
2023-02-17T05:04:10.158Z,20.15
2023-02-17T05:06:53.444Z,21.73
2023-02-17T05:09:36.365Z,21.27
2023-02-17T05:12:10.943Z,21.33
2023-02-17T05:14:44.572Z,21.20
2023-02-17T05:17:19.104Z,21.83
2023-02-17T05:19:54.769Z,21.92
2023-02-17T05:22:35.208Z,19.60
2023-02-17T05:25:05.862Z,21.13
2023-02-17T05:27:47.725Z,20.35
2023-02-17T05:33:07.040Z,21.35
2023-02-17T05:35:42.172Z,21.80
2023-02-17T05:38:28.356Z,20.95
2023-02-17T05:41:07.512Z,21.83
2023-02-17T05:43:40.787Z,21.50
2023-02-17T05:46:08.538Z,21.35
2023-02-17T05:49:01.161Z,19.13
2023-02-17T05:51:44.695Z,21.52
2023-02-17T05:54:29.332Z,21.48
2023-02-17T05:57:05.181Z,20.52
2023-02-17T05:59:42.576Z,20.80
2023-02-17T06:02:23.162Z,23.15
2023-02-17T06:05:34.215Z,21.88
2023-02-17T06:08:18.061Z,21.08
2023-02-17T06:10:58.003Z,20.55
2023-02-17T06:13:26.821Z,21.15
2023-02-17T06:16:11.262Z,20.33
2023-02-17T06:19:01.905Z,22.63
2023-02-17T06:21:38.101Z,20.00
2023-02-17T06:24:18.748Z,20.52
2023-02-17T06:26:56.066Z,20.75
2023-02-17T06:29:29.063Z,20.58
2023-02-17T06:31:56.489Z,20.48
2023-02-17T06:34:24.002Z,20.38
2023-02-17T06:36:51.339Z,21.50
2023-02-17T06:39:21.751Z,20.08
2023-02-17T06:41:48.970Z,19.50
2023-02-17T06:44:22.792Z,21.55
2023-02-17T06:46:57.653Z,20.23
2023-02-17T06:49:25.093Z,19.85
2023-02-17T06:51:52.326Z,23.63
2023-02-17T06:54:25.034Z,23.33
2023-02-17T06:56:55.330Z,21.37
2023-02-17T06:59:22.844Z,20.95
2023-02-17T07:01:50.790Z,20.15
2023-02-17T07:04:24.561Z,21.67
2023-02-17T07:06:52.041Z,23.83
2023-02-17T07:09:31.237Z,20.90
2023-02-17T07:12:00.141Z,20.13
2023-02-17T07:14:35.340Z,20.95
2023-02-17T07:17:16.939Z,20.45
2023-02-17T07:22:21.712Z,19.80
2023-02-17T07:24:52.545Z,22.35
2023-02-17T07:27:20.211Z,19.38
2023-02-17T07:29:50.193Z,20.75
2023-02-17T07:32:17.712Z,20.95
2023-02-17T07:34:56.934Z,21.98
2023-02-17T07:37:27.173Z,20.50
2023-02-17T07:39:54.616Z,20.52
2023-02-17T07:42:28.849Z,21.73
2023-02-17T07:45:15.839Z,22.42
2023-02-17T07:47:45.639Z,21.35
2023-02-17T07:50:17.994Z,21.58
2023-02-17T07:52:53.165Z,20.52
2023-02-17T07:55:26.167Z,22.17
2023-02-17T07:57:57.754Z,20.83
2023-02-17T08:00:54.190Z,22.92
2023-02-17T08:03:25.296Z,22.48
2023-02-17T08:05:53.454Z,23.27
2023-02-17T08:08:44.659Z,21.25
2023-02-17T08:11:38.575Z,24.30
2023-02-17T08:14:17.408Z,22.92
2023-02-17T08:16:46.804Z,22.60
2023-02-17T08:19:17.268Z,23.40
2023-02-17T08:21:48.011Z,22.20
2023-02-17T08:24:35.277Z,24.30
2023-02-17T08:27:02.507Z,23.23
2023-02-17T08:29:31.933Z,24.55
2023-02-17T08:32:01.561Z,24.73
2023-02-17T08:34:47.625Z,26.38
2023-02-17T08:37:22.721Z,23.02
2023-02-17T08:39:57.761Z,26.13
2023-02-17T08:42:35.084Z,24.67
2023-02-17T08:45:06.786Z,24.20
2023-02-17T08:47:40.677Z,25.73
2023-02-17T08:50:23.087Z,26.27
2023-02-17T08:52:56.383Z,25.45
2023-02-17T08:55:47.299Z,26.67
2023-02-17T08:58:20.951Z,26.52
2023-02-17T09:00:48.394Z,24.95
2023-02-17T09:03:21.633Z,26.52
2023-02-17T09:05:51.475Z,26.33
2023-02-17T09:08:28.750Z,26.52
2023-02-17T09:11:02.272Z,25.60
2023-02-17T09:13:38.554Z,25.38
2023-02-17T09:16:52.506Z,26.80
2023-02-17T09:19:20.192Z,24.67
2023-02-17T09:21:56.044Z,24.70
2023-02-17T09:24:33.369Z,26.15
2023-02-17T09:27:07.669Z,26.48
2023-02-17T09:29:39.277Z,24.90
2023-02-17T09:32:12.406Z,24.30
2023-02-17T09:34:45.027Z,25.95
2023-02-17T09:37:13.885Z,25.88
2023-02-17T09:39:47.506Z,27.70
2023-02-17T09:42:32.717Z,26.63
2023-02-17T09:45:09.111Z,24.15
2023-02-17T09:47:56.461Z,24.40
2023-02-17T09:50:39.099Z,25.40
2023-02-17T09:53:32.553Z,25.77
2023-02-17T09:56:16.720Z,25.92
2023-02-17T10:01:59.506Z,25.67
2023-02-17T10:04:53.014Z,25.73
2023-02-17T10:08:05.476Z,27.73
2023-02-17T10:11:03.769Z,25.02
2023-02-17T10:13:39.904Z,24.90
2023-02-17T10:17:00.749Z,25.92
2023-02-17T10:20:31.218Z,25.77
2023-02-17T10:26:44.960Z,25.48
2023-02-17T10:29:40.887Z,25.45
2023-02-17T10:32:31.992Z,24.52
2023-02-17T10:43:58.806Z,24.00
2023-02-17T10:46:38.163Z,26.05
2023-02-17T10:49:07.894Z,24.95
2023-02-17T10:51:39.461Z,27.10
2023-02-17T10:54:23.520Z,27.52
2023-02-17T10:57:05.665Z,24.73
2023-02-17T10:59:44.065Z,24.42
2023-02-17T11:02:35.802Z,25.05
2023-02-17T11:05:06.608Z,24.15
2023-02-17T11:07:46.979Z,24.65
2023-02-17T11:10:32.759Z,25.45
2023-02-17T11:13:11.527Z,24.63
2023-02-17T11:18:32.103Z,24.92
2023-02-17T11:21:08.371Z,24.67
2023-02-17T11:23:36.887Z,27.00
2023-02-17T11:26:25.184Z,25.48
2023-02-17T11:28:57.769Z,24.02
2023-02-17T11:31:40.354Z,26.23
2023-02-17T11:34:26.477Z,27.70
2023-02-17T11:39:51.468Z,29.83
2023-02-17T11:42:41.037Z,29.00
2023-02-17T11:45:22.899Z,28.05
2023-02-17T11:48:27.759Z,29.13
2023-02-17T11:51:16.023Z,29.98
2023-02-17T11:53:55.156Z,30.60
2023-02-17T11:57:10.114Z,28.08
2023-02-17T12:03:23.182Z,28.75
2023-02-17T12:06:18.583Z,30.90
2023-02-17T12:09:13.862Z,31.33
2023-02-17T12:12:25.316Z,30.45
2023-02-17T12:15:36.591Z,29.15
2023-02-17T12:18:56.413Z,31.35
2023-02-17T12:21:40.534Z,28.00
2023-02-17T12:24:46.702Z,25.25
2023-02-17T12:27:41.621Z,24.77
2023-02-17T12:33:32.218Z,24.50
2023-02-17T12:36:06.645Z,22.65
2023-02-17T12:39:08.543Z,20.65
2023-02-17T12:41:54.519Z,19.92
2023-02-17T12:44:58.969Z,20.80
2023-02-17T12:48:22.805Z,20.05
2023-02-17T12:51:14.776Z,22.45
2023-02-17T12:54:05.736Z,22.20
2023-02-17T12:56:55.658Z,23.13
2023-02-17T12:59:55.364Z,20.45
2023-02-17T13:02:41.094Z,20.48
2023-02-17T13:05:29.922Z,21.83
2023-02-17T13:08:26.164Z,20.65
2023-02-17T13:11:35.514Z,18.83
2023-02-17T13:15:10.399Z,17.95
2023-02-17T13:18:23.145Z,17.15
2023-02-17T13:21:44.686Z,15.45
2023-02-17T13:25:07.946Z,14.93
2023-02-17T13:28:09.888Z,15.70
2023-02-17T13:31:18.558Z,16.50
2023-02-17T13:34:29.372Z,15.95
2023-02-17T13:37:41.749Z,15.82
2023-02-17T13:40:34.157Z,17.90
2023-02-17T13:43:27.179Z,17.90
2023-02-17T13:46:21.617Z,18.58
2023-02-17T13:49:41.362Z,19.23
2023-02-17T13:52:51.627Z,18.63
2023-02-17T13:55:52.302Z,16.92
2023-02-17T13:59:15.503Z,15.63
2023-02-17T14:01:59.661Z,13.00
2023-02-17T14:04:46.944Z,13.00
2023-02-17T14:10:44.966Z,14.20
2023-02-17T14:13:26.164Z,12.98
2023-02-17T14:16:52.170Z,13.65
2023-02-17T14:19:47.983Z,14.13
2023-02-17T14:23:13.612Z,13.95
2023-02-17T14:26:09.333Z,15.32
2023-02-17T14:29:05.126Z,16.13
2023-02-17T14:31:52.710Z,15.30
2023-02-17T14:34:55.706Z,14.68
2023-02-17T14:37:32.269Z,14.52
2023-02-17T14:40:29.799Z,13.93
2023-02-17T14:43:18.588Z,14.23
2023-02-17T14:45:54.327Z,13.65
2023-02-17T14:48:44.114Z,13.25
2023-02-17T14:52:09.786Z,12.63
2023-02-17T15:02:25.473Z,12.23
2023-02-17T15:05:15.772Z,10.48
2023-02-17T15:08:35.783Z,11.93
2023-02-17T15:11:29.129Z,11.40
2023-02-17T15:14:15.607Z,11.05
2023-02-17T15:17:21.785Z,10.98
2023-02-17T15:20:34.937Z,10.45
2023-02-17T15:23:44.614Z,10.75
2023-02-17T15:26:43.731Z,8.25
2023-02-17T15:29:35.925Z,10.43
2023-02-17T15:35:36.338Z,10.85
2023-02-17T15:38:26.104Z,11.88
2023-02-17T15:41:30.620Z,10.40
2023-02-17T15:44:25.070Z,9.88
2023-02-17T15:47:07.182Z,9.98
2023-02-17T15:49:39.190Z,9.55
2023-02-17T15:52:23.468Z,9.50
2023-02-17T15:54:51.211Z,10.35
2023-02-17T15:57:33.685Z,8.45
2023-02-17T16:00:22.368Z,9.52
2023-02-17T16:03:23.021Z,9.60
2023-02-17T16:06:06.066Z,9.07
2023-02-17T16:08:42.149Z,8.57
2023-02-17T16:11:35.724Z,10.50
2023-02-17T16:14:27.874Z,8.15
2023-02-17T16:17:00.516Z,9.25
2023-02-17T16:22:19.467Z,8.57
2023-02-17T16:27:58.051Z,8.02
2023-02-17T16:30:52.539Z,7.72
2023-02-17T16:33:28.095Z,8.02
2023-02-17T16:36:11.575Z,8.40
2023-02-17T16:38:44.161Z,8.23
2023-02-17T16:41:24.735Z,7.45
2023-02-17T16:43:54.962Z,7.07
2023-02-17T16:46:45.510Z,7.65
2023-02-17T16:49:51.075Z,7.55
2023-02-17T16:55:47.016Z,7.53
2023-02-17T17:07:13.199Z,7.00
2023-02-17T17:10:15.764Z,7.50
2023-02-17T17:12:56.607Z,7.57
2023-02-17T17:15:52.656Z,6.45
2023-02-17T17:18:31.472Z,7.10
2023-02-17T17:21:13.909Z,6.68
2023-02-17T17:24:14.519Z,7.70
2023-02-17T17:26:57.514Z,7.88
2023-02-17T17:29:28.899Z,8.35
2023-02-17T17:32:00.682Z,7.50
2023-02-17T17:34:40.725Z,9.52
2023-02-17T17:37:14.710Z,7.65
2023-02-17T17:39:54.067Z,7.70
2023-02-17T17:42:40.511Z,8.27
2023-02-17T17:45:11.531Z,7.18
2023-02-17T17:48:00.261Z,7.50
2023-02-17T17:50:34.442Z,7.22
2023-02-17T17:53:01.788Z,7.10
2023-02-17T17:55:32.673Z,7.20
2023-02-17T17:58:06.320Z,7.72
2023-02-17T18:03:03.915Z,7.88
2023-02-17T18:05:37.543Z,8.52
2023-02-17T18:11:01.140Z,8.15
2023-02-17T18:13:31.884Z,7.90
2023-02-17T18:16:05.667Z,7.45
2023-02-17T18:18:40.795Z,8.73
2023-02-17T18:21:11.098Z,8.18
2023-02-17T18:23:45.618Z,10.25
2023-02-17T18:26:19.295Z,9.53
2023-02-17T18:34:54.066Z,8.95
2023-02-17T18:38:07.556Z,8.43
2023-02-17T18:40:48.763Z,9.73
2023-02-17T18:43:20.043Z,9.57
2023-02-17T18:46:00.577Z,10.50
2023-02-17T18:48:48.951Z,9.57
2023-02-17T18:51:33.996Z,9.63
2023-02-17T18:54:16.165Z,9.98
2023-02-17T18:57:02.339Z,10.65
2023-02-17T18:59:38.894Z,14.48
2023-02-17T19:02:16.051Z,14.55
2023-02-17T19:04:48.000Z,16.10
2023-02-17T19:07:21.617Z,13.18
2023-02-17T19:09:53.726Z,13.27
2023-02-17T19:12:29.863Z,14.07
2023-02-17T19:15:18.124Z,14.10
2023-02-17T19:21:12.601Z,13.30
2023-02-17T19:23:58.869Z,14.55
2023-02-17T19:26:49.431Z,13.82
2023-02-17T19:29:27.138Z,15.93
2023-02-17T19:32:06.586Z,15.68
2023-02-17T19:34:43.838Z,16.48
2023-02-17T19:37:21.147Z,15.48
2023-02-17T19:39:55.406Z,15.50
2023-02-17T19:42:59.411Z,15.18
2023-02-17T19:45:45.819Z,13.88
2023-02-17T19:48:36.664Z,15.88
2023-02-17T19:52:03.733Z,15.50
2023-02-17T19:55:31.352Z,16.65
2023-02-17T19:58:25.510Z,16.65
2023-02-17T20:03:52.112Z,16.95
2023-02-17T20:06:42.052Z,16.90
2023-02-17T20:09:30.910Z,17.42
2023-02-17T20:12:04.443Z,17.50
2023-02-17T20:14:46.809Z,17.08
2023-02-17T20:17:30.912Z,17.05
2023-02-17T20:20:13.423Z,16.80
2023-02-17T20:23:20.713Z,15.82
2023-02-17T20:26:56.547Z,16.83
2023-02-17T20:29:47.097Z,15.75
2023-02-17T20:32:51.427Z,13.73
2023-02-17T20:39:48.214Z,14.98
2023-02-17T20:53:30.847Z,19.02
2023-02-17T20:56:19.677Z,17.98
2023-02-17T20:59:34.535Z,17.35
2023-02-17T21:07:06.958Z,17.95
2023-02-17T21:10:32.116Z,17.95
2023-02-17T21:14:03.031Z,18.75
2023-02-17T21:21:20.050Z,18.60
2023-02-17T21:24:02.134Z,20.33
2023-02-17T21:30:21.016Z,20.70
2023-02-17T21:34:01.635Z,19.42
2023-02-17T21:40:40.225Z,19.35
2023-02-17T21:44:16.127Z,19.27
2023-02-17T21:47:25.629Z,17.27
2023-02-17T21:51:00.427Z,17.20
2023-02-17T22:04:58.523Z,15.25
2023-02-17T22:08:17.347Z,14.35
2023-02-17T22:15:12.836Z,14.20
2023-02-17T22:18:54.569Z,13.63
2023-02-17T22:22:18.312Z,14.38
2023-02-17T22:28:00.305Z,14.00
2023-02-17T22:37:46.278Z,16.00
2023-02-17T22:40:27.984Z,13.75
2023-02-17T22:43:33.298Z,15.02
2023-02-17T22:52:35.575Z,15.02
2023-02-17T22:55:25.114Z,13.27
2023-02-17T22:58:03.832Z,14.45
2023-02-17T23:01:08.138Z,14.30
2023-02-17T23:03:43.452Z,14.77
2023-02-17T23:09:30.100Z,15.00
2023-02-17T23:15:11.538Z,14.18
2023-02-17T23:22:01.571Z,13.90
2023-02-17T23:27:54.254Z,14.18
2023-02-17T23:30:55.577Z,14.25
2023-02-17T23:33:48.175Z,14.23
2023-02-17T23:40:33.659Z,15.98
2023-02-17T23:46:58.102Z,16.38
2023-02-17T23:49:40.326Z,16.85
2023-02-17T23:53:07.093Z,16.77
2023-02-17T23:55:42.870Z,16.20
2023-02-17T23:58:27.737Z,15.27
